sensor_id;sensor_type;location;lat;lon;timestamp;P1;durP1;ratioP1;P2;durP2;ratioP2
11034;SDS011;5571;48.110;-1.706;2023-06-14T00:01:19;21.85;;;17.25;;
11034;SDS011;5571;48.110;-1.706;2023-06-14T00:03:47;24.33;;;18.30;;
11034;SDS011;5571;48.110;-1.706;2023-06-14T00:06:13;18.52;;;16.45;;
11034;SDS011;5571;48.110;-1.706;2023-06-14T00:08:39;24.25;;;18.13;;
11034;SDS011;5571;48.110;-1.706;2023-06-14T00:11:05;20.75;;;17.67;;
11034;SDS011;5571;48.110;-1.706;2023-06-14T00:13:31;24.90;;;18.48;;
11034;SDS011;5571;48.110;-1.706;2023-06-14T00:15:58;25.17;;;19.35;;
11034;SDS011;5571;48.110;-1.706;2023-06-14T00:18:24;29.08;;;18.85;;
11034;SDS011;5571;48.110;-1.706;2023-06-14T00:20:51;21.92;;;18.20;;
11034;SDS011;5571;48.110;-1.706;2023-06-14T00:23:17;29.75;;;23.35;;
11034;SDS011;5571;48.110;-1.706;2023-06-14T00:25:43;26.65;;;19.88;;
11034;SDS011;5571;48.110;-1.706;2023-06-14T00:28:09;25.25;;;18.95;;
11034;SDS011;5571;48.110;-1.706;2023-06-14T00:30:34;26.15;;;20.77;;
11034;SDS011;5571;48.110;-1.706;2023-06-14T00:33:00;29.75;;;22.10;;
11034;SDS011;5571;48.110;-1.706;2023-06-14T00:35:26;31.00;;;22.42;;
11034;SDS011;5571;48.110;-1.706;2023-06-14T00:37:51;29.92;;;24.23;;
11034;SDS011;5571;48.110;-1.706;2023-06-14T00:40:19;32.58;;;23.63;;
11034;SDS011;5571;48.110;-1.706;2023-06-14T00:42:45;31.33;;;23.60;;
11034;SDS011;5571;48.110;-1.706;2023-06-14T00:45:11;32.38;;;24.52;;
11034;SDS011;5571;48.110;-1.706;2023-06-14T00:47:37;30.00;;;22.70;;
11034;SDS011;5571;48.110;-1.706;2023-06-14T00:50:08;30.65;;;23.33;;
11034;SDS011;5571;48.110;-1.706;2023-06-14T00:52:34;39.38;;;30.40;;
11034;SDS011;5571;48.110;-1.706;2023-06-14T00:55:01;36.50;;;26.35;;
11034;SDS011;5571;48.110;-1.706;2023-06-14T00:57:27;35.08;;;26.45;;
11034;SDS011;5571;48.110;-1.706;2023-06-14T00:59:54;32.55;;;24.77;;
11034;SDS011;5571;48.110;-1.706;2023-06-14T01:02:21;39.58;;;24.92;;
11034;SDS011;5571;48.110;-1.706;2023-06-14T01:04:47;31.70;;;25.60;;
11034;SDS011;5571;48.110;-1.706;2023-06-14T01:15:04;33.28;;;25.80;;
11034;SDS011;5571;48.110;-1.706;2023-06-14T01:17:30;35.90;;;25.17;;
11034;SDS011;5571;48.110;-1.706;2023-06-14T01:20:03;30.20;;;24.98;;
11034;SDS011;5571;48.110;-1.706;2023-06-14T01:22:34;33.95;;;24.58;;
11034;SDS011;5571;48.110;-1.706;2023-06-14T01:25:00;35.85;;;25.27;;
11034;SDS011;5571;48.110;-1.706;2023-06-14T01:27:26;33.10;;;25.50;;
11034;SDS011;5571;48.110;-1.706;2023-06-14T01:29:54;32.45;;;23.77;;
11034;SDS011;5571;48.110;-1.706;2023-06-14T01:32:22;32.47;;;25.85;;
11034;SDS011;5571;48.110;-1.706;2023-06-14T01:34:49;38.03;;;25.45;;
11034;SDS011;5571;48.110;-1.706;2023-06-14T01:37:15;34.33;;;26.80;;
11034;SDS011;5571;48.110;-1.706;2023-06-14T01:39:42;31.52;;;25.52;;
11034;SDS011;5571;48.110;-1.706;2023-06-14T01:42:08;37.63;;;26.48;;
11034;SDS011;5571;48.110;-1.706;2023-06-14T01:44:35;34.35;;;25.95;;
11034;SDS011;5571;48.110;-1.706;2023-06-14T01:47:02;36.22;;;27.50;;
11034;SDS011;5571;48.110;-1.706;2023-06-14T01:49:28;40.05;;;29.05;;
11034;SDS011;5571;48.110;-1.706;2023-06-14T01:51:53;39.80;;;30.30;;
11034;SDS011;5571;48.110;-1.706;2023-06-14T01:54:19;37.97;;;29.52;;
11034;SDS011;5571;48.110;-1.706;2023-06-14T01:56:46;40.45;;;31.98;;
11034;SDS011;5571;48.110;-1.706;2023-06-14T01:59:12;42.83;;;30.00;;
11034;SDS011;5571;48.110;-1.706;2023-06-14T02:01:38;37.88;;;29.88;;
11034;SDS011;5571;48.110;-1.706;2023-06-14T02:04:03;38.78;;;28.48;;
11034;SDS011;5571;48.110;-1.706;2023-06-14T02:06:29;39.20;;;31.02;;
11034;SDS011;5571;48.110;-1.706;2023-06-14T02:08:55;42.47;;;31.05;;
11034;SDS011;5571;48.110;-1.706;2023-06-14T02:11:20;37.30;;;28.92;;
11034;SDS011;5571;48.110;-1.706;2023-06-14T02:13:46;40.85;;;30.80;;
11034;SDS011;5571;48.110;-1.706;2023-06-14T02:16:11;41.28;;;29.65;;
11034;SDS011;5571;48.110;-1.706;2023-06-14T02:18:37;48.40;;;35.63;;
11034;SDS011;5571;48.110;-1.706;2023-06-14T02:21:03;40.78;;;30.05;;
11034;SDS011;5571;48.110;-1.706;2023-06-14T02:23:28;43.17;;;32.22;;
11034;SDS011;5571;48.110;-1.706;2023-06-14T02:25:54;43.17;;;31.02;;
11034;SDS011;5571;48.110;-1.706;2023-06-14T02:28:20;48.60;;;35.10;;
11034;SDS011;5571;48.110;-1.706;2023-06-14T02:30:46;41.42;;;30.25;;
11034;SDS011;5571;48.110;-1.706;2023-06-14T02:33:11;39.83;;;29.67;;
11034;SDS011;5571;48.110;-1.706;2023-06-14T02:35:38;42.40;;;31.30;;
11034;SDS011;5571;48.110;-1.706;2023-06-14T02:38:03;38.35;;;30.50;;
11034;SDS011;5571;48.110;-1.706;2023-06-14T02:40:29;44.25;;;30.80;;
11034;SDS011;5571;48.110;-1.706;2023-06-14T02:42:55;43.83;;;30.77;;
11034;SDS011;5571;48.110;-1.706;2023-06-14T02:45:20;38.17;;;29.92;;
11034;SDS011;5571;48.110;-1.706;2023-06-14T02:47:46;40.55;;;30.02;;
11034;SDS011;5571;48.110;-1.706;2023-06-14T02:50:11;42.80;;;31.48;;
11034;SDS011;5571;48.110;-1.706;2023-06-14T02:52:37;42.92;;;31.23;;
11034;SDS011;5571;48.110;-1.706;2023-06-14T02:55:03;46.60;;;32.20;;
11034;SDS011;5571;48.110;-1.706;2023-06-14T02:57:29;41.53;;;31.55;;
11034;SDS011;5571;48.110;-1.706;2023-06-14T02:59:55;40.90;;;31.42;;
11034;SDS011;5571;48.110;-1.706;2023-06-14T03:02:20;42.00;;;30.25;;
11034;SDS011;5571;48.110;-1.706;2023-06-14T03:04:46;41.55;;;30.17;;
11034;SDS011;5571;48.110;-1.706;2023-06-14T03:07:12;42.65;;;29.75;;
11034;SDS011;5571;48.110;-1.706;2023-06-14T03:09:38;41.47;;;31.38;;
11034;SDS011;5571;48.110;-1.706;2023-06-14T03:12:04;39.17;;;29.75;;
11034;SDS011;5571;48.110;-1.706;2023-06-14T03:14:34;42.65;;;31.95;;
11034;SDS011;5571;48.110;-1.706;2023-06-14T03:17:00;42.42;;;31.40;;
11034;SDS011;5571;48.110;-1.706;2023-06-14T03:19:27;41.30;;;30.83;;
11034;SDS011;5571;48.110;-1.706;2023-06-14T03:21:52;50.35;;;33.05;;
11034;SDS011;5571;48.110;-1.706;2023-06-14T03:24:22;41.65;;;32.00;;
11034;SDS011;5571;48.110;-1.706;2023-06-14T03:26:48;41.85;;;32.88;;
11034;SDS011;5571;48.110;-1.706;2023-06-14T03:29:14;44.72;;;34.85;;
11034;SDS011;5571;48.110;-1.706;2023-06-14T03:31:41;50.00;;;33.50;;
11034;SDS011;5571;48.110;-1.706;2023-06-14T03:34:21;49.83;;;34.03;;
11034;SDS011;5571;48.110;-1.706;2023-06-14T03:36:46;48.13;;;34.33;;
11034;SDS011;5571;48.110;-1.706;2023-06-14T03:39:12;48.60;;;32.83;;
11034;SDS011;5571;48.110;-1.706;2023-06-14T03:41:38;42.95;;;32.55;;
11034;SDS011;5571;48.110;-1.706;2023-06-14T03:44:03;46.88;;;32.60;;
11034;SDS011;5571;48.110;-1.706;2023-06-14T03:46:29;44.33;;;33.85;;
11034;SDS011;5571;48.110;-1.706;2023-06-14T03:48:55;51.45;;;34.13;;
11034;SDS011;5571;48.110;-1.706;2023-06-14T03:51:20;47.85;;;33.95;;
11034;SDS011;5571;48.110;-1.706;2023-06-14T03:53:47;47.05;;;35.05;;
11034;SDS011;5571;48.110;-1.706;2023-06-14T03:56:13;52.05;;;34.05;;
11034;SDS011;5571;48.110;-1.706;2023-06-14T03:58:38;47.97;;;35.28;;
11034;SDS011;5571;48.110;-1.706;2023-06-14T04:01:04;45.58;;;33.03;;
11034;SDS011;5571;48.110;-1.706;2023-06-14T04:03:31;48.05;;;33.58;;
11034;SDS011;5571;48.110;-1.706;2023-06-14T04:05:58;50.15;;;33.42;;
11034;SDS011;5571;48.110;-1.706;2023-06-14T04:08:24;45.55;;;32.90;;
11034;SDS011;5571;48.110;-1.706;2023-06-14T04:10:50;48.65;;;33.55;;
11034;SDS011;5571;48.110;-1.706;2023-06-14T04:13:16;45.85;;;32.47;;
11034;SDS011;5571;48.110;-1.706;2023-06-14T04:15:42;45.40;;;32.25;;
11034;SDS011;5571;48.110;-1.706;2023-06-14T04:18:10;49.17;;;33.47;;
11034;SDS011;5571;48.110;-1.706;2023-06-14T04:20:36;46.15;;;34.03;;
11034;SDS011;5571;48.110;-1.706;2023-06-14T04:23:11;44.95;;;32.90;;
11034;SDS011;5571;48.110;-1.706;2023-06-14T04:25:38;47.33;;;32.75;;
11034;SDS011;5571;48.110;-1.706;2023-06-14T04:28:03;49.72;;;32.40;;
11034;SDS011;5571;48.110;-1.706;2023-06-14T04:30:29;46.10;;;32.22;;
11034;SDS011;5571;48.110;-1.706;2023-06-14T04:32:56;43.78;;;32.35;;
11034;SDS011;5571;48.110;-1.706;2023-06-14T04:35:22;45.33;;;33.17;;
11034;SDS011;5571;48.110;-1.706;2023-06-14T04:37:50;43.85;;;32.33;;
11034;SDS011;5571;48.110;-1.706;2023-06-14T04:40:18;44.80;;;31.45;;
11034;SDS011;5571;48.110;-1.706;2023-06-14T04:42:44;41.40;;;31.47;;
11034;SDS011;5571;48.110;-1.706;2023-06-14T04:45:11;42.35;;;31.50;;
11034;SDS011;5571;48.110;-1.706;2023-06-14T04:47:37;39.83;;;30.33;;
11034;SDS011;5571;48.110;-1.706;2023-06-14T04:50:03;41.08;;;29.70;;
11034;SDS011;5571;48.110;-1.706;2023-06-14T04:52:29;42.33;;;29.77;;
11034;SDS011;5571;48.110;-1.706;2023-06-14T04:54:56;38.65;;;29.88;;
11034;SDS011;5571;48.110;-1.706;2023-06-14T04:57:22;39.70;;;29.17;;
11034;SDS011;5571;48.110;-1.706;2023-06-14T04:59:50;41.45;;;30.00;;
11034;SDS011;5571;48.110;-1.706;2023-06-14T05:02:20;39.38;;;29.08;;
11034;SDS011;5571;48.110;-1.706;2023-06-14T05:04:49;41.70;;;29.25;;
11034;SDS011;5571;48.110;-1.706;2023-06-14T05:07:15;39.10;;;29.25;;
11034;SDS011;5571;48.110;-1.706;2023-06-14T05:09:41;39.47;;;28.45;;
11034;SDS011;5571;48.110;-1.706;2023-06-14T05:12:07;36.22;;;27.75;;
11034;SDS011;5571;48.110;-1.706;2023-06-14T05:14:33;38.17;;;26.42;;
11034;SDS011;5571;48.110;-1.706;2023-06-14T05:16:59;37.78;;;28.35;;
11034;SDS011;5571;48.110;-1.706;2023-06-14T05:19:25;36.00;;;26.80;;
11034;SDS011;5571;48.110;-1.706;2023-06-14T05:21:51;34.30;;;26.88;;
11034;SDS011;5571;48.110;-1.706;2023-06-14T05:24:18;33.33;;;27.05;;
11034;SDS011;5571;48.110;-1.706;2023-06-14T05:26:43;38.83;;;26.15;;
11034;SDS011;5571;48.110;-1.706;2023-06-14T05:29:09;39.92;;;25.63;;
11034;SDS011;5571;48.110;-1.706;2023-06-14T05:31:35;38.33;;;27.15;;
11034;SDS011;5571;48.110;-1.706;2023-06-14T05:34:00;40.63;;;28.25;;
11034;SDS011;5571;48.110;-1.706;2023-06-14T05:36:26;34.97;;;25.90;;
11034;SDS011;5571;48.110;-1.706;2023-06-14T05:38:53;37.03;;;26.42;;
11034;SDS011;5571;48.110;-1.706;2023-06-14T05:41:26;33.35;;;24.88;;
11034;SDS011;5571;48.110;-1.706;2023-06-14T05:43:53;35.60;;;25.52;;
11034;SDS011;5571;48.110;-1.706;2023-06-14T05:46:19;31.20;;;24.10;;
11034;SDS011;5571;48.110;-1.706;2023-06-14T05:48:50;38.58;;;25.02;;
11034;SDS011;5571;48.110;-1.706;2023-06-14T05:51:16;33.63;;;23.83;;
11034;SDS011;5571;48.110;-1.706;2023-06-14T05:53:50;36.15;;;23.00;;
11034;SDS011;5571;48.110;-1.706;2023-06-14T05:56:16;37.58;;;23.85;;
11034;SDS011;5571;48.110;-1.706;2023-06-14T05:58:45;34.03;;;23.77;;
11034;SDS011;5571;48.110;-1.706;2023-06-14T06:01:12;31.85;;;23.35;;
11034;SDS011;5571;48.110;-1.706;2023-06-14T06:03:38;30.83;;;22.38;;
11034;SDS011;5571;48.110;-1.706;2023-06-14T06:06:04;31.15;;;22.10;;
11034;SDS011;5571;48.110;-1.706;2023-06-14T06:08:29;28.83;;;21.38;;
11034;SDS011;5571;48.110;-1.706;2023-06-14T06:10:56;33.60;;;21.70;;
11034;SDS011;5571;48.110;-1.706;2023-06-14T06:13:22;31.33;;;20.92;;
11034;SDS011;5571;48.110;-1.706;2023-06-14T06:15:47;30.27;;;20.42;;
11034;SDS011;5571;48.110;-1.706;2023-06-14T06:18:13;27.05;;;20.42;;
11034;SDS011;5571;48.110;-1.706;2023-06-14T06:20:39;27.00;;;21.52;;
11034;SDS011;5571;48.110;-1.706;2023-06-14T06:23:04;26.15;;;20.60;;
11034;SDS011;5571;48.110;-1.706;2023-06-14T06:25:30;33.00;;;19.52;;
11034;SDS011;5571;48.110;-1.706;2023-06-14T06:27:57;26.08;;;19.42;;
11034;SDS011;5571;48.110;-1.706;2023-06-14T06:30:23;28.90;;;18.85;;
11034;SDS011;5571;48.110;-1.706;2023-06-14T06:32:49;29.10;;;17.67;;
11034;SDS011;5571;48.110;-1.706;2023-06-14T06:35:16;22.92;;;17.92;;
11034;SDS011;5571;48.110;-1.706;2023-06-14T06:37:42;23.80;;;17.40;;
11034;SDS011;5571;48.110;-1.706;2023-06-14T06:40:08;23.77;;;17.38;;
11034;SDS011;5571;48.110;-1.706;2023-06-14T06:42:34;27.73;;;18.33;;
11034;SDS011;5571;48.110;-1.706;2023-06-14T06:45:00;23.90;;;18.30;;
11034;SDS011;5571;48.110;-1.706;2023-06-14T06:47:26;22.30;;;16.30;;
11034;SDS011;5571;48.110;-1.706;2023-06-14T06:49:52;25.42;;;16.15;;
11034;SDS011;5571;48.110;-1.706;2023-06-14T06:52:18;28.80;;;18.40;;
11034;SDS011;5571;48.110;-1.706;2023-06-14T06:54:43;27.17;;;16.98;;
11034;SDS011;5571;48.110;-1.706;2023-06-14T06:57:09;21.27;;;16.83;;
11034;SDS011;5571;48.110;-1.706;2023-06-14T06:59:36;23.80;;;17.00;;
11034;SDS011;5571;48.110;-1.706;2023-06-14T07:02:01;27.75;;;16.17;;
11034;SDS011;5571;48.110;-1.706;2023-06-14T07:04:27;23.42;;;15.30;;
11034;SDS011;5571;48.110;-1.706;2023-06-14T07:06:53;25.42;;;14.15;;
11034;SDS011;5571;48.110;-1.706;2023-06-14T07:09:18;21.45;;;14.48;;
11034;SDS011;5571;48.110;-1.706;2023-06-14T07:11:44;27.45;;;15.07;;
11034;SDS011;5571;48.110;-1.706;2023-06-14T07:14:12;24.65;;;14.35;;
11034;SDS011;5571;48.110;-1.706;2023-06-14T07:16:37;25.90;;;13.95;;
11034;SDS011;5571;48.110;-1.706;2023-06-14T07:19:03;20.00;;;14.35;;
11034;SDS011;5571;48.110;-1.706;2023-06-14T07:21:29;23.83;;;14.25;;
11034;SDS011;5571;48.110;-1.706;2023-06-14T07:23:55;19.40;;;13.23;;
11034;SDS011;5571;48.110;-1.706;2023-06-14T07:26:21;18.50;;;13.68;;
11034;SDS011;5571;48.110;-1.706;2023-06-14T07:28:47;22.23;;;13.75;;
11034;SDS011;5571;48.110;-1.706;2023-06-14T07:31:13;20.88;;;14.00;;
11034;SDS011;5571;48.110;-1.706;2023-06-14T07:33:44;24.90;;;12.88;;
11034;SDS011;5571;48.110;-1.706;2023-06-14T07:36:10;21.05;;;13.23;;
11034;SDS011;5571;48.110;-1.706;2023-06-14T07:38:35;19.42;;;12.80;;
11034;SDS011;5571;48.110;-1.706;2023-06-14T07:41:01;24.52;;;14.30;;
11034;SDS011;5571;48.110;-1.706;2023-06-14T07:43:27;20.38;;;13.48;;
11034;SDS011;5571;48.110;-1.706;2023-06-14T07:45:53;25.55;;;12.45;;
11034;SDS011;5571;48.110;-1.706;2023-06-14T07:48:19;27.35;;;12.75;;
11034;SDS011;5571;48.110;-1.706;2023-06-14T07:50:44;23.70;;;12.52;;
11034;SDS011;5571;48.110;-1.706;2023-06-14T07:53:10;22.55;;;11.93;;
11034;SDS011;5571;48.110;-1.706;2023-06-14T07:55:36;19.92;;;10.82;;
11034;SDS011;5571;48.110;-1.706;2023-06-14T07:58:05;17.83;;;11.85;;
11034;SDS011;5571;48.110;-1.706;2023-06-14T08:00:31;20.52;;;11.18;;
11034;SDS011;5571;48.110;-1.706;2023-06-14T08:02:57;19.42;;;10.90;;
11034;SDS011;5571;48.110;-1.706;2023-06-14T08:05:24;28.30;;;11.50;;
11034;SDS011;5571;48.110;-1.706;2023-06-14T08:07:50;21.35;;;12.20;;
11034;SDS011;5571;48.110;-1.706;2023-06-14T08:10:16;19.85;;;12.07;;
11034;SDS011;5571;48.110;-1.706;2023-06-14T08:12:42;19.65;;;12.40;;
11034;SDS011;5571;48.110;-1.706;2023-06-14T08:15:08;19.73;;;10.88;;
11034;SDS011;5571;48.110;-1.706;2023-06-14T08:17:34;19.52;;;11.88;;
11034;SDS011;5571;48.110;-1.706;2023-06-14T08:20:00;20.65;;;12.13;;
11034;SDS011;5571;48.110;-1.706;2023-06-14T08:22:25;21.27;;;11.25;;
11034;SDS011;5571;48.110;-1.706;2023-06-14T08:24:53;21.77;;;12.30;;
11034;SDS011;5571;48.110;-1.706;2023-06-14T08:27:19;22.67;;;11.15;;
11034;SDS011;5571;48.110;-1.706;2023-06-14T08:29:45;17.30;;;10.70;;
11034;SDS011;5571;48.110;-1.706;2023-06-14T08:32:11;23.13;;;10.90;;
11034;SDS011;5571;48.110;-1.706;2023-06-14T08:34:37;24.15;;;11.73;;
11034;SDS011;5571;48.110;-1.706;2023-06-14T08:37:03;21.58;;;11.30;;
11034;SDS011;5571;48.110;-1.706;2023-06-14T08:39:29;17.02;;;11.48;;
11034;SDS011;5571;48.110;-1.706;2023-06-14T08:41:54;19.73;;;11.13;;
11034;SDS011;5571;48.110;-1.706;2023-06-14T08:44:21;18.20;;;10.90;;
11034;SDS011;5571;48.110;-1.706;2023-06-14T08:46:47;16.48;;;10.48;;
11034;SDS011;5571;48.110;-1.706;2023-06-14T08:49:13;17.25;;;9.85;;
11034;SDS011;5571;48.110;-1.706;2023-06-14T08:51:42;16.70;;;10.27;;
11034;SDS011;5571;48.110;-1.706;2023-06-14T08:54:08;15.50;;;9.20;;
11034;SDS011;5571;48.110;-1.706;2023-06-14T08:56:36;18.70;;;9.35;;
11034;SDS011;5571;48.110;-1.706;2023-06-14T08:59:03;18.33;;;8.63;;
11034;SDS011;5571;48.110;-1.706;2023-06-14T09:01:33;13.32;;;8.27;;
11034;SDS011;5571;48.110;-1.706;2023-06-14T09:03:59;20.40;;;8.50;;
11034;SDS011;5571;48.110;-1.706;2023-06-14T09:06:27;13.85;;;8.38;;
11034;SDS011;5571;48.110;-1.706;2023-06-14T09:08:53;17.33;;;7.65;;
11034;SDS011;5571;48.110;-1.706;2023-06-14T09:11:21;13.65;;;8.25;;
11034;SDS011;5571;48.110;-1.706;2023-06-14T09:13:47;11.90;;;7.43;;
11034;SDS011;5571;48.110;-1.706;2023-06-14T09:16:13;11.05;;;7.40;;
11034;SDS011;5571;48.110;-1.706;2023-06-14T09:21:09;11.02;;;7.22;;
11034;SDS011;5571;48.110;-1.706;2023-06-14T09:23:36;16.27;;;7.22;;
11034;SDS011;5571;48.110;-1.706;2023-06-14T09:26:07;16.42;;;7.80;;
11034;SDS011;5571;48.110;-1.706;2023-06-14T09:28:37;13.95;;;7.13;;
11034;SDS011;5571;48.110;-1.706;2023-06-14T09:31:07;15.45;;;7.75;;
11034;SDS011;5571;48.110;-1.706;2023-06-14T09:33:34;16.90;;;7.57;;
11034;SDS011;5571;48.110;-1.706;2023-06-14T09:36:00;12.10;;;6.53;;
11034;SDS011;5571;48.110;-1.706;2023-06-14T09:38:26;15.43;;;7.63;;
11034;SDS011;5571;48.110;-1.706;2023-06-14T09:40:52;14.70;;;7.18;;
11034;SDS011;5571;48.110;-1.706;2023-06-14T09:43:17;11.43;;;7.28;;
11034;SDS011;5571;48.110;-1.706;2023-06-14T09:45:44;11.15;;;6.38;;
11034;SDS011;5571;48.110;-1.706;2023-06-14T09:48:13;18.92;;;7.60;;
11034;SDS011;5571;48.110;-1.706;2023-06-14T09:50:44;15.27;;;7.30;;
11034;SDS011;5571;48.110;-1.706;2023-06-14T09:53:11;17.63;;;6.82;;
11034;SDS011;5571;48.110;-1.706;2023-06-14T09:55:37;11.50;;;7.03;;
11034;SDS011;5571;48.110;-1.706;2023-06-14T09:58:06;16.33;;;6.45;;
11034;SDS011;5571;48.110;-1.706;2023-06-14T10:00:32;10.70;;;6.40;;
11034;SDS011;5571;48.110;-1.706;2023-06-14T10:03:21;14.95;;;6.93;;
11034;SDS011;5571;48.110;-1.706;2023-06-14T10:05:53;17.50;;;7.32;;
11034;SDS011;5571;48.110;-1.706;2023-06-14T10:08:26;13.10;;;6.55;;
11034;SDS011;5571;48.110;-1.706;2023-06-14T10:10:56;9.15;;;6.53;;
11034;SDS011;5571;48.110;-1.706;2023-06-14T10:13:21;13.27;;;6.03;;
11034;SDS011;5571;48.110;-1.706;2023-06-14T10:15:51;11.43;;;6.75;;
11034;SDS011;5571;48.110;-1.706;2023-06-14T10:18:33;9.50;;;6.53;;
11034;SDS011;5571;48.110;-1.706;2023-06-14T10:24:14;8.30;;;6.05;;
11034;SDS011;5571;48.110;-1.706;2023-06-14T10:26:53;12.13;;;5.93;;
11034;SDS011;5571;48.110;-1.706;2023-06-14T10:29:22;17.83;;;6.80;;
11034;SDS011;5571;48.110;-1.706;2023-06-14T10:31:48;15.65;;;6.78;;
11034;SDS011;5571;48.110;-1.706;2023-06-14T10:34:22;8.27;;;6.18;;
11034;SDS011;5571;48.110;-1.706;2023-06-14T10:37:02;10.63;;;6.55;;
11034;SDS011;5571;48.110;-1.706;2023-06-14T10:39:28;11.65;;;6.78;;
11034;SDS011;5571;48.110;-1.706;2023-06-14T10:41:56;9.90;;;6.55;;
11034;SDS011;5571;48.110;-1.706;2023-06-14T10:49:16;9.38;;;6.05;;
11034;SDS011;5571;48.110;-1.706;2023-06-14T10:51:44;15.57;;;6.75;;
11034;SDS011;5571;48.110;-1.706;2023-06-14T10:54:15;9.98;;;6.00;;
11034;SDS011;5571;48.110;-1.706;2023-06-14T10:56:48;9.13;;;5.45;;
11034;SDS011;5571;48.110;-1.706;2023-06-14T10:59:15;10.27;;;5.85;;
11034;SDS011;5571;48.110;-1.706;2023-06-14T11:01:47;14.63;;;6.43;;
11034;SDS011;5571;48.110;-1.706;2023-06-14T11:04:51;10.88;;;5.60;;
11034;SDS011;5571;48.110;-1.706;2023-06-14T11:10:31;15.68;;;6.45;;
11034;SDS011;5571;48.110;-1.706;2023-06-14T11:13:02;10.32;;;5.50;;
11034;SDS011;5571;48.110;-1.706;2023-06-14T11:15:32;9.68;;;5.80;;
11034;SDS011;5571;48.110;-1.706;2023-06-14T11:18:02;8.23;;;5.95;;
11034;SDS011;5571;48.110;-1.706;2023-06-14T11:20:33;16.05;;;6.25;;
11034;SDS011;5571;48.110;-1.706;2023-06-14T11:23:00;8.88;;;5.78;;
11034;SDS011;5571;48.110;-1.706;2023-06-14T11:25:26;8.00;;;6.10;;
11034;SDS011;5571;48.110;-1.706;2023-06-14T11:27:55;15.23;;;5.82;;
11034;SDS011;5571;48.110;-1.706;2023-06-14T11:30:22;13.90;;;6.30;;
11034;SDS011;5571;48.110;-1.706;2023-06-14T11:32:49;10.90;;;6.10;;
11034;SDS011;5571;48.110;-1.706;2023-06-14T11:35:16;10.00;;;5.90;;
11034;SDS011;5571;48.110;-1.706;2023-06-14T11:37:43;9.88;;;6.35;;
11034;SDS011;5571;48.110;-1.706;2023-06-14T11:40:12;10.98;;;6.07;;
11034;SDS011;5571;48.110;-1.706;2023-06-14T11:42:39;12.18;;;5.75;;
11034;SDS011;5571;48.110;-1.706;2023-06-14T11:45:09;11.02;;;6.22;;
11034;SDS011;5571;48.110;-1.706;2023-06-14T11:47:36;21.50;;;7.78;;
11034;SDS011;5571;48.110;-1.706;2023-06-14T11:50:03;10.63;;;5.68;;
11034;SDS011;5571;48.110;-1.706;2023-06-14T11:52:30;11.60;;;5.78;;
11034;SDS011;5571;48.110;-1.706;2023-06-14T11:54:56;10.68;;;5.70;;
11034;SDS011;5571;48.110;-1.706;2023-06-14T11:57:23;11.60;;;5.90;;
11034;SDS011;5571;48.110;-1.706;2023-06-14T11:59:50;12.13;;;6.10;;
11034;SDS011;5571;48.110;-1.706;2023-06-14T12:02:16;13.85;;;6.03;;
11034;SDS011;5571;48.110;-1.706;2023-06-14T12:04:43;10.23;;;5.70;;
11034;SDS011;5571;48.110;-1.706;2023-06-14T12:07:12;9.88;;;5.47;;
11034;SDS011;5571;48.110;-1.706;2023-06-14T12:12:21;8.25;;;5.63;;
11034;SDS011;5571;48.110;-1.706;2023-06-14T12:14:47;10.45;;;5.40;;
11034;SDS011;5571;48.110;-1.706;2023-06-14T12:17:16;10.05;;;5.38;;
11034;SDS011;5571;48.110;-1.706;2023-06-14T12:19:43;9.68;;;5.88;;
11034;SDS011;5571;48.110;-1.706;2023-06-14T12:22:10;14.77;;;5.55;;
11034;SDS011;5571;48.110;-1.706;2023-06-14T12:24:36;7.32;;;5.40;;
11034;SDS011;5571;48.110;-1.706;2023-06-14T12:27:03;11.40;;;6.00;;
11034;SDS011;5571;48.110;-1.706;2023-06-14T12:29:29;6.32;;;5.20;;
11034;SDS011;5571;48.110;-1.706;2023-06-14T12:31:56;9.13;;;5.53;;
11034;SDS011;5571;48.110;-1.706;2023-06-14T12:34:25;10.75;;;5.63;;
11034;SDS011;5571;48.110;-1.706;2023-06-14T12:36:52;8.40;;;5.40;;
11034;SDS011;5571;48.110;-1.706;2023-06-14T12:39:18;9.82;;;5.68;;
11034;SDS011;5571;48.110;-1.706;2023-06-14T12:41:44;8.80;;;5.40;;
11034;SDS011;5571;48.110;-1.706;2023-06-14T12:44:10;7.43;;;5.38;;
11034;SDS011;5571;48.110;-1.706;2023-06-14T12:46:37;8.25;;;5.65;;
11034;SDS011;5571;48.110;-1.706;2023-06-14T12:49:04;11.82;;;5.30;;
11034;SDS011;5571;48.110;-1.706;2023-06-14T12:51:31;7.38;;;5.18;;
11034;SDS011;5571;48.110;-1.706;2023-06-14T12:53:57;6.55;;;5.85;;
11034;SDS011;5571;48.110;-1.706;2023-06-14T12:56:23;8.18;;;5.85;;
11034;SDS011;5571;48.110;-1.706;2023-06-14T12:58:48;7.22;;;5.78;;
11034;SDS011;5571;48.110;-1.706;2023-06-14T13:01:14;9.05;;;5.80;;
11034;SDS011;5571;48.110;-1.706;2023-06-14T13:03:40;9.95;;;5.68;;
11034;SDS011;5571;48.110;-1.706;2023-06-14T13:06:05;9.63;;;5.65;;
11034;SDS011;5571;48.110;-1.706;2023-06-14T13:08:31;12.05;;;5.80;;
11034;SDS011;5571;48.110;-1.706;2023-06-14T13:10:57;9.02;;;5.68;;
11034;SDS011;5571;48.110;-1.706;2023-06-14T13:13:22;11.93;;;5.63;;
11034;SDS011;5571;48.110;-1.706;2023-06-14T13:15:48;8.38;;;4.93;;
11034;SDS011;5571;48.110;-1.706;2023-06-14T13:18:15;10.90;;;5.63;;
11034;SDS011;5571;48.110;-1.706;2023-06-14T13:20:40;10.35;;;5.18;;
11034;SDS011;5571;48.110;-1.706;2023-06-14T13:23:06;12.73;;;5.55;;
11034;SDS011;5571;48.110;-1.706;2023-06-14T13:25:35;11.70;;;5.50;;
11034;SDS011;5571;48.110;-1.706;2023-06-14T13:28:03;7.40;;;5.20;;
11034;SDS011;5571;48.110;-1.706;2023-06-14T13:30:29;13.68;;;5.30;;
11034;SDS011;5571;48.110;-1.706;2023-06-14T13:32:56;9.57;;;5.47;;
11034;SDS011;5571;48.110;-1.706;2023-06-14T13:35:22;7.25;;;5.32;;
11034;SDS011;5571;48.110;-1.706;2023-06-14T13:37:48;7.70;;;5.05;;
11034;SDS011;5571;48.110;-1.706;2023-06-14T13:40:14;7.78;;;5.32;;
11034;SDS011;5571;48.110;-1.706;2023-06-14T13:42:40;8.02;;;5.20;;
11034;SDS011;5571;48.110;-1.706;2023-06-14T13:45:06;14.10;;;5.22;;
11034;SDS011;5571;48.110;-1.706;2023-06-14T13:47:33;8.23;;;5.57;;
11034;SDS011;5571;48.110;-1.706;2023-06-14T13:49:58;7.35;;;5.18;;
11034;SDS011;5571;48.110;-1.706;2023-06-14T13:52:24;8.38;;;5.32;;
11034;SDS011;5571;48.110;-1.706;2023-06-14T13:54:50;5.90;;;4.95;;
11034;SDS011;5571;48.110;-1.706;2023-06-14T13:57:16;12.13;;;5.30;;
11034;SDS011;5571;48.110;-1.706;2023-06-14T13:59:42;8.25;;;5.10;;
11034;SDS011;5571;48.110;-1.706;2023-06-14T14:02:11;10.25;;;5.18;;
11034;SDS011;5571;48.110;-1.706;2023-06-14T14:04:38;8.90;;;5.07;;
11034;SDS011;5571;48.110;-1.706;2023-06-14T14:07:04;8.20;;;5.25;;
11034;SDS011;5571;48.110;-1.706;2023-06-14T14:09:31;7.18;;;5.47;;
11034;SDS011;5571;48.110;-1.706;2023-06-14T14:12:01;7.65;;;5.20;;
11034;SDS011;5571;48.110;-1.706;2023-06-14T14:14:27;9.30;;;5.35;;
11034;SDS011;5571;48.110;-1.706;2023-06-14T14:16:53;6.38;;;4.82;;
11034;SDS011;5571;48.110;-1.706;2023-06-14T14:19:20;7.57;;;5.22;;
11034;SDS011;5571;48.110;-1.706;2023-06-14T14:21:47;8.38;;;5.68;;
11034;SDS011;5571;48.110;-1.706;2023-06-14T14:24:12;12.02;;;6.15;;
11034;SDS011;5571;48.110;-1.706;2023-06-14T14:26:38;5.70;;;5.20;;
11034;SDS011;5571;48.110;-1.706;2023-06-14T14:29:05;10.05;;;4.97;;
11034;SDS011;5571;48.110;-1.706;2023-06-14T14:31:31;9.32;;;5.50;;
11034;SDS011;5571;48.110;-1.706;2023-06-14T14:33:56;9.18;;;5.05;;
11034;SDS011;5571;48.110;-1.706;2023-06-14T14:36:22;7.05;;;5.15;;
11034;SDS011;5571;48.110;-1.706;2023-06-14T14:38:48;8.20;;;5.45;;
11034;SDS011;5571;48.110;-1.706;2023-06-14T14:41:13;7.15;;;5.35;;
11034;SDS011;5571;48.110;-1.706;2023-06-14T14:43:39;6.43;;;5.45;;
11034;SDS011;5571;48.110;-1.706;2023-06-14T14:46:05;8.50;;;4.75;;
11034;SDS011;5571;48.110;-1.706;2023-06-14T14:48:31;6.95;;;5.35;;
11034;SDS011;5571;48.110;-1.706;2023-06-14T14:50:56;6.13;;;4.97;;